Time,TemperatureF,DewpointF,PressureIn,WindDirection,WindDirectionDegrees,WindSpeedMPH,WindSpeedGustMPH,Humidity,HourlyPrecipIn,Conditions,Clouds,dailyrainin,SoftwareType,DateUTC
2013-07-25 00:02:00,55.6,54.1,29.99,SSW,193,9.0,17.0,95,0.00,,,0.00,meteohub,2013-07-25 07:02:00,
2013-07-25 00:07:00,55.2,53.8,29.99,SSW,195,12.0,17.0,95,0.00,,,0.00,meteohub,2013-07-25 07:07:00,
2013-07-25 00:12:00,55.0,53.6,29.99,SSE,163,10.0,17.0,95,0.00,,,0.00,meteohub,2013-07-25 07:12:00,
2013-07-25 00:17:00,55.0,53.6,29.99,SSW,201,9.0,18.0,95,0.00,,,0.00,meteohub,2013-07-25 07:17:00,
2013-07-25 00:22:00,54.9,53.8,29.99,SSW,194,7.0,18.0,96,0.00,,,0.00,meteohub,2013-07-25 07:22:00,
2013-07-25 00:27:00,54.7,53.6,29.99,SSW,208,14.0,18.0,96,0.00,,,0.00,meteohub,2013-07-25 07:27:00,
2013-07-25 00:32:00,54.7,53.6,29.99,South,177,10.0,20.0,96,0.00,,,0.00,meteohub,2013-07-25 07:32:00,
2013-07-25 00:38:00,54.9,53.8,29.99,SSW,198,7.0,20.0,96,0.00,,,0.00,meteohub,2013-07-25 07:38:00,
2013-07-25 00:43:00,54.9,53.8,29.98,SSW,202,6.0,17.0,96,0.00,,,0.00,meteohub,2013-07-25 07:43:00,
2013-07-25 00:48:00,54.9,53.8,29.99,SSW,205,10.0,15.0,96,0.00,,,0.00,meteohub,2013-07-25 07:48:00,
2013-07-25 00:53:00,54.7,53.6,29.98,South,177,11.0,15.0,96,0.00,,,0.00,meteohub,2013-07-25 07:53:00,
2013-07-25 00:58:00,54.7,53.6,29.99,SSW,193,13.0,17.0,96,0.00,,,0.00,meteohub,2013-07-25 07:58:00,
2013-07-25 01:03:00,54.7,53.6,29.99,South,182,10.0,18.0,96,0.00,,,0.00,meteohub,2013-07-25 08:03:00,
2013-07-25 01:09:00,54.7,53.6,29.99,SSW,204,7.0,18.0,96,0.00,,,0.00,meteohub,2013-07-25 08:09:00,
2013-07-25 01:14:00,54.7,53.6,29.99,SSW,197,10.0,18.0,96,0.00,,,0.00,meteohub,2013-07-25 08:14:00,
2013-07-25 01:19:00,54.5,53.4,29.99,SSW,193,9.0,17.0,96,0.00,,,0.00,meteohub,2013-07-25 08:19:00,
2013-07-25 01:24:00,54.3,53.2,29.99,South,174,8.0,17.0,96,0.00,,,0.00,meteohub,2013-07-25 08:24:00,
2013-07-25 01:29:00,54.3,53.2,29.99,South,187,11.0,17.0,96,0.00,,,0.00,meteohub,2013-07-25 08:29:00,
2013-07-25 01:34:00,54.1,53.1,29.99,SSW,201,11.0,18.0,96,0.00,,,0.00,meteohub,2013-07-25 08:34:00,
2013-07-25 01:39:00,54.1,53.1,29.99,South,177,8.0,18.0,96,0.00,,,0.00,meteohub,2013-07-25 08:39:00,
2013-07-25 01:44:00,54.1,53.1,29.99,SW,220,16.0,18.0,96,0.00,,,0.00,meteohub,2013-07-25 08:44:00,
2013-07-25 01:49:00,54.1,53.1,29.99,SSW,195,16.0,17.0,96,0.00,,,0.00,meteohub,2013-07-25 08:49:00,
2013-07-25 01:55:00,54.0,52.9,29.99,SSW,199,9.0,17.0,96,0.00,,,0.00,meteohub,2013-07-25 08:55:00,
2013-07-25 02:00:00,54.0,53.1,29.99,SW,218,10.0,18.0,97,0.00,,,0.00,meteohub,2013-07-25 09:00:00,
2013-07-25 02:05:00,54.0,52.9,29.99,SSW,203,11.0,18.0,96,0.00,,,0.00,meteohub,2013-07-25 09:05:00,
2013-07-25 02:10:00,54.0,53.1,29.99,SW,215,16.0,18.0,97,0.00,,,0.00,meteohub,2013-07-25 09:10:00,
2013-07-25 02:15:00,54.0,53.1,29.99,SSW,195,10.0,15.0,97,0.00,,,0.00,meteohub,2013-07-25 09:15:00,
2013-07-25 02:20:00,54.0,52.9,29.99,SSW,206,14.0,17.0,96,0.00,,,0.00,meteohub,2013-07-25 09:20:00,
2013-07-25 02:25:00,54.0,53.1,29.99,SSW,197,11.0,17.0,97,0.00,,,0.00,meteohub,2013-07-25 09:25:00,
2013-07-25 02:30:00,54.0,53.1,29.99,SSW,194,8.0,17.0,97,0.00,,,0.00,meteohub,2013-07-25 09:30:00,
2013-07-25 02:35:00,54.0,53.1,29.99,SSW,201,12.0,17.0,97,0.00,,,0.00,meteohub,2013-07-25 09:35:00,
2013-07-25 02:40:00,54.0,53.1,29.99,SW,220,17.0,17.0,97,0.00,,,0.00,meteohub,2013-07-25 09:40:00,
2013-07-25 02:45:00,54.0,53.1,29.99,SSW,194,9.0,17.0,97,0.00,,,0.00,meteohub,2013-07-25 09:45:00,
2013-07-25 02:51:00,53.8,52.9,29.99,SSW,212,10.0,18.0,97,0.00,,,0.00,meteohub,2013-07-25 09:51:00,
2013-07-25 02:56:00,53.8,52.9,29.99,SSW,199,11.0,18.0,97,0.00,,,0.00,meteohub,2013-07-25 09:56:00,
2013-07-25 03:01:00,53.8,52.7,29.99,SW,215,9.0,18.0,96,0.00,,,0.00,meteohub,2013-07-25 10:01:00,
2013-07-25 03:06:00,53.6,52.5,29.99,South,183,8.0,17.0,96,0.00,,,0.00,meteohub,2013-07-25 10:06:00,
2013-07-25 03:12:00,53.4,52.3,29.99,SSW,206,6.0,16.0,96,0.00,,,0.00,meteohub,2013-07-25 10:12:00,
2013-07-25 03:17:00,53.8,52.9,29.99,SSW,199,6.0,15.0,97,0.00,,,0.00,meteohub,2013-07-25 10:17:00,
2013-07-25 03:22:00,53.6,52.5,29.99,South,181,9.0,15.0,96,0.00,,,0.00,meteohub,2013-07-25 10:22:00,
2013-07-25 03:27:00,53.4,52.3,29.99,South,180,12.0,15.0,96,0.00,,,0.00,meteohub,2013-07-25 10:27:00,
2013-07-25 03:32:00,53.4,52.3,29.99,SSW,195,12.0,14.0,96,0.00,,,0.00,meteohub,2013-07-25 10:32:00,
2013-07-25 03:37:00,53.4,52.3,29.99,South,191,6.0,16.0,96,0.00,,,0.00,meteohub,2013-07-25 10:37:00,
2013-07-25 03:42:00,53.4,52.3,29.99,South,187,6.0,16.0,96,0.00,,,0.00,meteohub,2013-07-25 10:42:00,
2013-07-25 03:47:00,53.4,52.5,29.99,SSW,193,7.0,16.0,97,0.00,,,0.00,meteohub,2013-07-25 10:47:00,
2013-07-25 03:52:00,53.6,52.7,29.99,SSW,194,5.0,15.0,97,0.00,,,0.00,meteohub,2013-07-25 10:52:00,
2013-07-25 03:57:00,53.4,52.3,29.99,South,171,10.0,15.0,96,0.00,,,0.00,meteohub,2013-07-25 10:57:00,
2013-07-25 04:02:00,53.4,52.3,29.99,South,185,8.0,15.0,96,0.00,,,0.00,meteohub,2013-07-25 11:02:00,
2013-07-25 04:07:00,53.6,52.7,29.99,SSE,165,8.0,14.0,97,0.00,,,0.00,meteohub,2013-07-25 11:07:00,
2013-07-25 04:12:00,53.4,52.5,29.99,South,187,13.0,15.0,97,0.00,,,0.00,meteohub,2013-07-25 11:12:00,
2013-07-25 04:18:00,53.4,52.3,29.99,South,177,3.0,16.0,96,0.00,,,0.00,meteohub,2013-07-25 11:18:00,
2013-07-25 04:23:00,53.4,52.3,29.99,South,191,11.0,16.0,96,0.00,,,0.00,meteohub,2013-07-25 11:23:00,
2013-07-25 04:28:00,53.4,52.5,29.99,South,175,10.0,17.0,97,0.00,,,0.00,meteohub,2013-07-25 11:28:00,
2013-07-25 04:33:00,53.4,52.3,29.99,South,179,9.0,17.0,96,0.00,,,0.00,meteohub,2013-07-25 11:33:00,
2013-07-25 04:38:00,53.2,52.2,29.99,South,181,9.0,17.0,96,0.00,,,0.00,meteohub,2013-07-25 11:38:00,
2013-07-25 04:43:00,53.2,52.2,29.99,SSE,168,9.0,16.0,96,0.00,,,0.00,meteohub,2013-07-25 11:43:00,
2013-07-25 04:48:00,53.2,52.3,29.99,South,183,7.0,16.0,97,0.00,,,0.00,meteohub,2013-07-25 11:48:00,
2013-07-25 04:53:00,53.2,52.3,29.99,South,169,3.0,17.0,97,0.00,,,0.00,meteohub,2013-07-25 11:53:00,
2013-07-25 04:58:00,53.2,52.3,29.99,SSW,192,10.0,17.0,97,0.00,,,0.00,meteohub,2013-07-25 11:58:00,
2013-07-25 05:03:00,53.2,52.3,29.99,SSW,193,9.0,17.0,97,0.00,,,0.00,meteohub,2013-07-25 12:03:00,
2013-07-25 05:08:00,53.2,52.2,29.99,SSW,204,11.0,15.0,96,0.00,,,0.00,meteohub,2013-07-25 12:08:00,
2013-07-25 05:13:00,53.2,52.3,29.99,SSW,204,10.0,15.0,97,0.00,,,0.00,meteohub,2013-07-25 12:13:00,
2013-07-25 05:19:00,53.1,52.2,29.99,SSW,198,10.0,16.0,97,0.00,,,0.00,meteohub,2013-07-25 12:19:00,
2013-07-25 05:24:00,53.2,52.3,29.99,South,183,4.0,16.0,97,0.00,,,0.00,meteohub,2013-07-25 12:24:00,
2013-07-25 05:26:00,53.2,52.3,29.99,SSW,197,6.0,16.0,97,0.00,,,0.00,meteohub,2013-07-25 12:26:00,
2013-07-25 05:31:00,53.2,52.3,29.99,South,181,7.0,14.0,97,0.00,,,0.00,meteohub,2013-07-25 12:31:00,
2013-07-25 05:36:00,53.4,52.5,30.00,South,186,9.0,14.0,97,0.00,,,0.00,meteohub,2013-07-25 12:36:00,
2013-07-25 05:41:00,53.4,52.5,29.99,SSE,168,9.0,13.0,97,0.00,,,0.00,meteohub,2013-07-25 12:41:00,
2013-07-25 05:46:00,53.4,52.3,29.99,South,185,5.0,12.0,96,0.00,,,0.00,meteohub,2013-07-25 12:46:00,
2013-07-25 05:51:00,53.6,52.5,29.99,SSW,198,4.0,12.0,96,0.00,,,0.00,meteohub,2013-07-25 12:51:00,
2013-07-25 05:57:00,53.8,52.9,29.99,South,181,7.0,11.0,97,0.00,,,0.00,meteohub,2013-07-25 12:57:00,
2013-07-25 06:02:00,53.8,52.9,30.00,South,170,5.0,9.0,97,0.00,,,0.00,meteohub,2013-07-25 13:02:00,
2013-07-25 06:07:00,53.8,52.9,30.00,South,181,1.0,9.0,97,0.00,,,0.00,meteohub,2013-07-25 13:07:00,
2013-07-25 06:12:00,53.8,52.7,30.00,South,183,3.0,9.0,96,0.00,,,0.00,meteohub,2013-07-25 13:12:00,
2013-07-25 06:17:00,54.0,52.9,30.00,South,169,6.0,11.0,96,0.00,,,0.00,meteohub,2013-07-25 13:17:00,
2013-07-25 06:22:00,53.8,52.7,30.00,South,178,7.0,12.0,96,0.00,,,0.00,meteohub,2013-07-25 13:22:00,
2013-07-25 06:28:00,53.8,52.7,30.00,South,188,5.0,14.0,96,0.00,,,0.00,meteohub,2013-07-25 13:28:00,
2013-07-25 06:33:00,54.0,52.9,30.01,South,189,6.0,14.0,96,0.00,,,0.00,meteohub,2013-07-25 13:33:00,
2013-07-25 06:38:00,53.8,52.7,30.01,South,175,10.0,14.0,96,0.00,,,0.00,meteohub,2013-07-25 13:38:00,
2013-07-25 06:43:00,53.6,52.5,30.01,North,359,15.0,17.0,96,0.00,,,0.00,meteohub,2013-07-25 13:43:00,
2013-07-25 06:48:00,53.4,52.3,30.01,South,170,10.0,17.0,96,0.00,,,0.00,meteohub,2013-07-25 13:48:00,
2013-07-25 06:53:00,53.6,52.5,30.01,SSW,213,10.0,17.0,96,0.00,,,0.00,meteohub,2013-07-25 13:53:00,
2013-07-25 06:58:00,53.6,52.5,30.01,South,170,8.0,15.0,96,0.00,,,0.00,meteohub,2013-07-25 13:58:00,
2013-07-25 07:03:00,53.4,52.3,30.01,South,172,9.0,15.0,96,0.00,,,0.00,meteohub,2013-07-25 14:03:00,
2013-07-25 07:09:00,53.4,52.3,30.02,South,174,10.0,15.0,96,0.00,,,0.00,meteohub,2013-07-25 14:09:00,
2013-07-25 07:14:00,53.4,52.3,30.02,SSW,204,10.0,15.0,96,0.00,,,0.00,meteohub,2013-07-25 14:14:00,
2013-07-25 07:19:00,53.4,52.3,30.02,SSW,193,8.0,16.0,96,0.00,,,0.00,meteohub,2013-07-25 14:19:00,
2013-07-25 07:24:00,53.4,52.3,30.03,SSE,168,9.0,16.0,96,0.00,,,0.00,meteohub,2013-07-25 14:24:00,
2013-07-25 07:30:00,53.6,52.5,30.02,SSE,154,9.0,16.0,96,0.00,,,0.00,meteohub,2013-07-25 14:30:00,
2013-07-25 07:35:00,53.4,52.3,30.03,South,179,8.0,16.0,96,0.00,,,0.00,meteohub,2013-07-25 14:35:00,
2013-07-25 07:40:00,53.4,52.3,30.03,South,183,9.0,14.0,96,0.00,,,0.00,meteohub,2013-07-25 14:40:00,
2013-07-25 07:45:00,53.4,52.3,30.02,SSW,197,8.0,16.0,96,0.00,,,0.00,meteohub,2013-07-25 14:45:00,
2013-07-25 07:50:00,53.4,52.3,30.02,SSW,199,6.0,16.0,96,0.00,,,0.00,meteohub,2013-07-25 14:50:00,
2013-07-25 07:55:00,53.6,52.5,30.02,South,179,9.0,14.0,96,0.00,,,0.00,meteohub,2013-07-25 14:55:00,
2013-07-25 08:00:00,53.6,52.5,30.03,South,185,8.0,13.0,96,0.00,,,0.00,meteohub,2013-07-25 15:00:00,
2013-07-25 08:06:00,53.6,52.5,30.03,South,183,6.0,14.0,96,0.00,,,0.00,meteohub,2013-07-25 15:06:00,
2013-07-25 08:11:00,53.6,52.5,30.03,SSW,203,8.0,14.0,96,0.00,,,0.00,meteohub,2013-07-25 15:11:00,
2013-07-25 08:17:00,53.6,52.5,30.04,SSW,199,11.0,15.0,96,0.00,,,0.00,meteohub,2013-07-25 15:17:00,
2013-07-25 08:22:00,53.8,52.7,30.04,WSW,244,10.0,16.0,96,0.00,,,0.00,meteohub,2013-07-25 15:22:00,
2013-07-25 08:27:00,53.8,52.7,30.04,SSW,206,10.0,16.0,96,0.00,,,0.00,meteohub,2013-07-25 15:27:00,
2013-07-25 08:32:00,54.0,52.9,30.04,South,185,14.0,16.0,96,0.00,,,0.00,meteohub,2013-07-25 15:32:00,
2013-07-25 08:37:00,54.0,52.9,30.04,South,185,6.0,14.0,96,0.00,,,0.00,meteohub,2013-07-25 15:37:00,
2013-07-25 08:42:00,54.1,53.1,30.04,SSW,192,8.0,16.0,96,0.00,,,0.00,meteohub,2013-07-25 15:42:00,
2013-07-25 08:48:00,54.0,52.5,30.04,South,179,5.0,16.0,95,0.00,,,0.00,meteohub,2013-07-25 15:48:00,
2013-07-25 08:53:00,54.0,52.5,30.04,SSE,157,8.0,16.0,95,0.00,,,0.00,meteohub,2013-07-25 15:53:00,
2013-07-25 08:58:00,54.1,52.7,30.04,South,172,8.0,15.0,95,0.00,,,0.00,meteohub,2013-07-25 15:58:00,
2013-07-25 09:03:00,54.3,52.9,30.04,South,183,9.0,14.0,95,0.00,,,0.00,meteohub,2013-07-25 16:03:00,
2013-07-25 09:08:00,54.3,52.9,30.04,South,171,8.0,14.0,95,0.00,,,0.00,meteohub,2013-07-25 16:08:00,
2013-07-25 09:13:00,54.1,52.7,30.04,SSW,192,11.0,15.0,95,0.00,,,0.00,meteohub,2013-07-25 16:13:00,
2013-07-25 09:18:00,54.5,53.1,30.04,SSE,160,9.0,16.0,95,0.00,,,0.00,meteohub,2013-07-25 16:18:00,
2013-07-25 09:24:00,54.7,53.2,30.04,South,181,11.0,16.0,95,0.00,,,0.00,meteohub,2013-07-25 16:24:00,
2013-07-25 09:29:00,54.9,53.2,30.04,South,176,9.0,16.0,94,0.00,,,0.00,meteohub,2013-07-25 16:29:00,
2013-07-25 09:34:00,54.9,53.2,30.04,SSW,199,13.0,13.0,94,0.00,,,0.00,meteohub,2013-07-25 16:34:00,
2013-07-25 09:39:00,54.9,53.2,30.04,SSW,204,9.0,16.0,94,0.00,,,0.00,meteohub,2013-07-25 16:39:00,
2013-07-25 09:44:00,55.0,53.4,30.05,SSW,195,11.0,16.0,94,0.00,,,0.00,meteohub,2013-07-25 16:44:00,
2013-07-25 09:49:00,55.0,53.4,30.05,South,175,5.0,16.0,94,0.00,,,0.00,meteohub,2013-07-25 16:49:00,
2013-07-25 09:54:00,55.0,53.4,30.05,SSW,195,10.0,16.0,94,0.00,,,0.00,meteohub,2013-07-25 16:54:00,
2013-07-25 10:00:00,55.0,53.4,30.05,SSW,204,11.0,16.0,94,0.00,,,0.00,meteohub,2013-07-25 17:00:00,
2013-07-25 10:05:00,55.0,53.4,30.05,SSW,211,13.0,17.0,94,0.00,,,0.00,meteohub,2013-07-25 17:05:00,
2013-07-25 10:10:00,55.0,53.4,30.05,South,185,8.0,17.0,94,0.00,,,0.00,meteohub,2013-07-25 17:10:00,
2013-07-25 10:15:00,55.0,53.4,30.05,SSW,211,14.0,17.0,94,0.00,,,0.00,meteohub,2013-07-25 17:15:00,
2013-07-25 10:20:00,55.0,53.4,30.05,SSW,208,12.0,17.0,94,0.00,,,0.00,meteohub,2013-07-25 17:20:00,
2013-07-25 10:25:00,55.2,53.6,30.05,SSW,211,8.0,17.0,94,0.00,,,0.00,meteohub,2013-07-25 17:25:00,
2013-07-25 10:30:00,55.6,54.0,30.06,SW,215,12.0,17.0,94,0.00,,,0.00,meteohub,2013-07-25 17:30:00,
2013-07-25 10:35:00,55.4,53.4,30.06,SSW,210,9.0,19.0,93,0.00,,,0.00,meteohub,2013-07-25 17:35:00,
2013-07-25 10:41:00,55.6,53.6,30.06,South,173,10.0,19.0,93,0.00,,,0.00,meteohub,2013-07-25 17:41:00,
2013-07-25 10:46:00,55.4,53.1,30.06,South,169,4.0,19.0,92,0.00,,,0.00,meteohub,2013-07-25 17:46:00,
2013-07-25 10:51:00,55.6,53.2,30.06,SSW,206,12.0,17.0,92,0.00,,,0.00,meteohub,2013-07-25 17:51:00,
2013-07-25 10:56:00,55.6,53.6,30.06,South,170,5.0,17.0,93,0.00,,,0.00,meteohub,2013-07-25 17:56:00,
2013-07-25 11:01:00,55.8,53.4,30.06,South,183,14.0,17.0,92,0.00,,,0.00,meteohub,2013-07-25 18:01:00,
2013-07-25 11:07:00,55.8,53.4,30.06,SSW,213,17.0,17.0,92,0.00,,,0.00,meteohub,2013-07-25 18:07:00,
2013-07-25 11:12:00,55.8,53.4,30.06,South,174,8.0,18.0,92,0.00,,,0.00,meteohub,2013-07-25 18:12:00,
2013-07-25 11:17:00,56.1,53.6,30.06,South,180,14.0,18.0,91,0.00,,,0.00,meteohub,2013-07-25 18:17:00,
2013-07-25 11:22:00,56.1,53.6,30.06,South,183,17.0,19.0,91,0.00,,,0.00,meteohub,2013-07-25 18:22:00,
2013-07-25 11:27:00,56.1,53.6,30.06,South,175,8.0,19.0,91,0.00,,,0.00,meteohub,2013-07-25 18:27:00,
2013-07-25 11:32:00,56.1,53.6,30.06,SSW,194,13.0,19.0,91,0.00,,,0.00,meteohub,2013-07-25 18:32:00,
2013-07-25 11:37:00,56.1,53.6,30.06,South,191,13.0,19.0,91,0.00,,,0.00,meteohub,2013-07-25 18:37:00,
2013-07-25 11:42:00,56.1,53.8,30.06,SE,145,9.0,18.0,92,0.00,,,0.00,meteohub,2013-07-25 18:42:00,
2013-07-25 11:47:00,56.5,54.0,30.06,SSE,147,13.0,18.0,91,0.00,,,0.00,meteohub,2013-07-25 18:47:00,
2013-07-25 11:52:00,56.7,54.1,30.06,South,174,9.0,20.0,91,0.00,,,0.00,meteohub,2013-07-25 18:52:00,
2013-07-25 11:58:00,57.0,54.1,30.06,South,183,9.0,20.0,90,0.00,,,0.00,meteohub,2013-07-25 18:58:00,
2013-07-25 12:03:00,57.4,54.5,30.06,SSE,168,11.0,20.0,90,0.00,,,0.00,meteohub,2013-07-25 19:03:00,
2013-07-25 12:08:00,57.0,54.1,30.06,South,183,6.0,19.0,90,0.00,,,0.00,meteohub,2013-07-25 19:08:00,
2013-07-25 12:13:00,56.8,54.0,30.06,SSW,194,13.0,18.0,90,0.00,,,0.00,meteohub,2013-07-25 19:13:00,
2013-07-25 12:18:00,56.8,54.0,30.06,South,191,7.0,18.0,90,0.00,,,0.00,meteohub,2013-07-25 19:18:00,
2013-07-25 12:23:00,57.4,54.9,30.06,South,181,17.0,19.0,91,0.00,,,0.00,meteohub,2013-07-25 19:23:00,
2013-07-25 12:29:00,57.6,54.3,30.06,South,175,11.0,19.0,89,0.00,,,0.00,meteohub,2013-07-25 19:29:00,
2013-07-25 12:34:00,57.7,54.9,30.05,SSW,198,7.0,19.0,90,0.00,,,0.00,meteohub,2013-07-25 19:34:00,
2013-07-25 12:39:00,57.9,54.3,30.05,SSE,156,6.0,18.0,88,0.00,,,0.00,meteohub,2013-07-25 19:39:00,
2013-07-25 12:44:00,57.9,54.3,30.05,SSW,195,7.0,19.0,88,0.00,,,0.00,meteohub,2013-07-25 19:44:00,
2013-07-25 12:49:00,58.6,54.9,30.05,South,190,18.0,19.0,87,0.00,,,0.00,meteohub,2013-07-25 19:49:00,
2013-07-25 12:54:00,58.6,55.0,30.05,South,181,13.0,20.0,88,0.00,,,0.00,meteohub,2013-07-25 19:54:00,
2013-07-25 12:59:00,58.6,54.9,30.05,South,169,13.0,20.0,87,0.00,,,0.00,meteohub,2013-07-25 19:59:00,
2013-07-25 13:04:00,58.5,54.7,30.05,South,172,18.0,20.0,87,0.00,,,0.00,meteohub,2013-07-25 20:04:00,
2013-07-25 13:10:00,57.7,54.1,30.05,South,175,12.0,22.0,88,0.00,,,0.00,meteohub,2013-07-25 20:10:00,
2013-07-25 13:15:00,57.9,54.3,30.05,SSW,195,7.0,22.0,88,0.00,,,0.00,meteohub,2013-07-25 20:15:00,
2013-07-25 13:20:00,58.3,54.7,30.05,South,185,16.0,22.0,88,0.00,,,0.00,meteohub,2013-07-25 20:20:00,
2013-07-25 13:25:00,58.1,54.5,30.04,SSE,158,9.0,22.0,88,0.00,,,0.00,meteohub,2013-07-25 20:25:00,
2013-07-25 13:30:00,58.5,54.9,30.04,South,189,17.0,22.0,88,0.00,,,0.00,meteohub,2013-07-25 20:30:00,
2013-07-25 13:35:00,58.5,54.9,30.04,SSE,158,14.0,21.0,88,0.00,,,0.00,meteohub,2013-07-25 20:35:00,
2013-07-25 13:40:00,58.5,55.2,30.04,SE,145,12.0,22.0,89,0.00,,,0.00,meteohub,2013-07-25 20:40:00,
2013-07-25 13:45:00,58.6,55.0,30.04,SSE,154,18.0,22.0,88,0.00,,,0.00,meteohub,2013-07-25 20:45:00,
2013-07-25 13:50:00,58.3,54.5,30.04,SE,140,10.0,22.0,87,0.00,,,0.00,meteohub,2013-07-25 20:50:00,
2013-07-25 13:56:00,58.5,54.9,30.04,SSE,154,12.0,21.0,88,0.00,,,0.00,meteohub,2013-07-25 20:56:00,
2013-07-25 14:01:00,58.8,55.0,30.04,South,175,15.0,21.0,87,0.00,,,0.00,meteohub,2013-07-25 21:01:00,
2013-07-25 14:06:00,58.8,55.2,30.03,SSE,158,14.0,20.0,88,0.00,,,0.00,meteohub,2013-07-25 21:06:00,
2013-07-25 14:11:00,59.7,56.5,30.03,South,172,11.0,20.0,89,0.00,,,0.00,meteohub,2013-07-25 21:11:00,
2013-07-25 14:16:00,59.7,55.8,30.03,SSE,166,14.0,20.0,87,0.00,,,0.00,meteohub,2013-07-25 21:16:00,
2013-07-25 14:21:00,59.7,56.1,30.03,SSE,160,17.0,17.0,88,0.00,,,0.00,meteohub,2013-07-25 21:21:00,
2013-07-25 14:27:00,59.0,55.4,30.03,SSE,154,5.0,19.0,88,0.00,,,0.00,meteohub,2013-07-25 21:27:00,
2013-07-25 14:32:00,59.5,55.9,30.03,SSE,157,13.0,22.0,88,0.00,,,0.00,meteohub,2013-07-25 21:32:00,
2013-07-25 14:37:00,59.9,56.3,30.03,SSE,168,14.0,22.0,88,0.00,,,0.00,meteohub,2013-07-25 21:37:00,
2013-07-25 14:42:00,60.1,55.9,30.03,South,179,12.0,20.0,86,0.00,,,0.00,meteohub,2013-07-25 21:42:00,
2013-07-25 14:48:00,60.1,55.6,30.03,South,177,15.0,18.0,85,0.00,,,0.00,meteohub,2013-07-25 21:48:00,
2013-07-25 14:53:00,59.4,55.2,30.03,South,188,17.0,17.0,86,0.00,,,0.00,meteohub,2013-07-25 21:53:00,
2013-07-25 14:58:00,58.3,54.5,30.03,SSE,166,18.0,21.0,87,0.00,,,0.00,meteohub,2013-07-25 21:58:00,
2013-07-25 15:03:00,58.5,55.2,30.03,South,187,20.0,23.0,89,0.00,,,0.00,meteohub,2013-07-25 22:03:00,
2013-07-25 15:08:00,58.6,55.0,30.03,SSE,162,10.0,23.0,88,0.00,,,0.00,meteohub,2013-07-25 22:08:00,
2013-07-25 15:13:00,58.5,54.9,30.03,SSE,166,12.0,23.0,88,0.00,,,0.00,meteohub,2013-07-25 22:13:00,
2013-07-25 15:18:00,58.6,55.4,30.02,SSE,147,10.0,22.0,89,0.00,,,0.00,meteohub,2013-07-25 22:18:00,
2013-07-25 15:24:00,59.4,55.8,30.02,SSE,168,10.0,22.0,88,0.00,,,0.00,meteohub,2013-07-25 22:24:00,
2013-07-25 15:29:00,59.7,56.1,30.02,South,180,16.0,22.0,88,0.00,,,0.00,meteohub,2013-07-25 22:29:00,
2013-07-25 15:34:00,59.5,55.4,30.02,SSE,165,11.0,20.0,86,0.00,,,0.00,meteohub,2013-07-25 22:34:00,
2013-07-25 15:39:00,59.5,55.6,30.02,SSE,164,10.0,20.0,87,0.00,,,0.00,meteohub,2013-07-25 22:39:00,
2013-07-25 15:44:00,59.5,55.6,30.02,SSE,160,10.0,19.0,87,0.00,,,0.00,meteohub,2013-07-25 22:44:00,
2013-07-25 15:50:00,59.9,55.8,30.01,SSE,168,16.0,18.0,86,0.00,,,0.00,meteohub,2013-07-25 22:50:00,
2013-07-25 15:55:00,59.9,55.9,30.01,SE,141,14.0,18.0,87,0.00,,,0.00,meteohub,2013-07-25 22:55:00,
2013-07-25 16:00:00,60.1,56.5,30.01,SSE,168,8.0,19.0,88,0.00,,,0.00,meteohub,2013-07-25 23:00:00,
2013-07-25 16:05:00,59.5,55.6,30.01,SSE,154,12.0,19.0,87,0.00,,,0.00,meteohub,2013-07-25 23:05:00,
2013-07-25 16:10:00,59.2,55.6,30.01,SSE,154,13.0,20.0,88,0.00,,,0.00,meteohub,2013-07-25 23:10:00,
2013-07-25 16:15:00,59.5,55.9,30.01,SSE,155,18.0,20.0,88,0.00,,,0.00,meteohub,2013-07-25 23:15:00,
2013-07-25 16:20:00,59.4,55.8,30.01,SSE,160,16.0,22.0,88,0.00,,,0.00,meteohub,2013-07-25 23:20:00,
2013-07-25 16:25:00,59.7,55.8,30.01,SSE,160,10.0,22.0,87,0.00,,,0.00,meteohub,2013-07-25 23:25:00,
2013-07-25 16:31:00,59.9,55.9,30.01,South,172,14.0,22.0,87,0.00,,,0.00,meteohub,2013-07-25 23:31:00,
2013-07-25 16:36:00,59.7,55.8,30.01,SSE,148,6.0,19.0,87,0.00,,,0.00,meteohub,2013-07-25 23:36:00,
2013-07-25 16:41:00,60.3,56.1,30.01,SSE,162,9.0,18.0,86,0.00,,,0.00,meteohub,2013-07-25 23:41:00,
2013-07-25 16:46:00,60.4,55.9,30.01,SSE,162,10.0,18.0,85,0.00,,,0.00,meteohub,2013-07-25 23:46:00,
2013-07-25 16:51:00,60.6,56.5,30.01,SSE,147,9.0,17.0,86,0.00,,,0.00,meteohub,2013-07-25 23:51:00,
2013-07-25 16:56:00,60.6,56.1,30.01,SSE,151,8.0,16.0,85,0.00,,,0.00,meteohub,2013-07-25 23:56:00,
2013-07-25 17:01:00,60.6,56.1,30.01,SSE,164,6.0,16.0,85,0.00,,,0.00,meteohub,2013-07-26 00:01:00,
2013-07-25 17:07:00,61.0,56.1,30.01,SSE,162,14.0,16.0,84,0.00,,,0.00,meteohub,2013-07-26 00:07:00,
2013-07-25 17:12:00,60.3,56.1,30.01,SSE,165,11.0,18.0,86,0.00,,,0.00,meteohub,2013-07-26 00:12:00,
2013-07-25 17:17:00,59.9,55.8,30.01,South,172,16.0,18.0,86,0.00,,,0.00,meteohub,2013-07-26 00:17:00,
2013-07-25 17:22:00,59.5,55.4,30.01,SSE,162,8.0,19.0,86,0.00,,,0.00,meteohub,2013-07-26 00:22:00,
2013-07-25 17:27:00,59.7,55.8,30.01,SSE,165,5.0,20.0,87,0.00,,,0.00,meteohub,2013-07-26 00:27:00,
2013-07-25 17:32:00,59.2,55.4,30.01,SSE,154,13.0,20.0,87,0.00,,,0.00,meteohub,2013-07-26 00:32:00,
2013-07-25 17:37:00,58.8,55.2,30.02,South,177,11.0,20.0,88,0.00,,,0.00,meteohub,2013-07-26 00:37:00,
2013-07-25 17:38:00,58.8,55.2,30.02,South,185,14.0,20.0,88,0.00,,,0.00,meteohub,2013-07-26 00:38:00,
2013-07-25 17:43:00,58.6,55.0,30.02,SSE,164,13.0,20.0,88,0.00,,,0.00,meteohub,2013-07-26 00:43:00,
2013-07-25 17:48:00,58.3,54.7,30.02,SSE,165,11.0,20.0,88,0.00,,,0.00,meteohub,2013-07-26 00:48:00,
2013-07-25 17:53:00,58.3,55.0,30.01,SE,131,10.0,21.0,89,0.00,,,0.00,meteohub,2013-07-26 00:53:00,
2013-07-25 17:58:00,58.3,55.0,30.02,SSE,164,14.0,21.0,89,0.00,,,0.00,meteohub,2013-07-26 00:58:00,
2013-07-25 18:04:00,58.3,54.7,30.02,SSE,167,6.0,21.0,88,0.00,,,0.00,meteohub,2013-07-26 01:04:00,
2013-07-25 18:09:00,57.7,54.5,30.02,SSE,162,11.0,21.0,89,0.00,,,0.00,meteohub,2013-07-26 01:09:00,
2013-07-25 18:14:00,57.7,54.5,30.01,SSE,167,13.0,21.0,89,0.00,,,0.00,meteohub,2013-07-26 01:14:00,
2013-07-25 18:19:00,57.7,54.9,30.02,SSE,156,7.0,21.0,90,0.00,,,0.00,meteohub,2013-07-26 01:19:00,
2013-07-25 18:24:00,57.7,54.9,30.02,SSE,155,14.0,21.0,90,0.00,,,0.00,meteohub,2013-07-26 01:24:00,
2013-07-25 18:29:00,57.7,55.2,30.02,South,175,7.0,20.0,91,0.00,,,0.00,meteohub,2013-07-26 01:29:00,
2013-07-25 18:34:00,57.9,55.0,30.02,SSE,164,7.0,17.0,90,0.00,,,0.00,meteohub,2013-07-26 01:34:00,
2013-07-25 18:40:00,57.9,55.0,30.02,SSE,166,11.0,17.0,90,0.00,,,0.00,meteohub,2013-07-26 01:40:00,
2013-07-25 18:45:00,57.9,55.0,30.02,SSE,157,13.0,16.0,90,0.00,,,0.00,meteohub,2013-07-26 01:45:00,
2013-07-25 18:50:00,57.6,54.7,30.02,SSE,165,13.0,17.0,90,0.00,,,0.00,meteohub,2013-07-26 01:50:00,
2013-07-25 18:55:00,57.6,54.7,30.02,SE,139,8.0,17.0,90,0.00,,,0.00,meteohub,2013-07-26 01:55:00,
2013-07-25 19:00:00,57.4,54.9,30.02,SE,141,9.0,17.0,91,0.00,,,0.00,meteohub,2013-07-26 02:00:00,
2013-07-25 19:05:00,57.0,54.5,30.02,ESE,119,12.0,19.0,91,0.00,,,0.00,meteohub,2013-07-26 02:05:00,
2013-07-25 19:10:00,57.0,54.5,30.02,South,170,10.0,19.0,91,0.00,,,0.00,meteohub,2013-07-26 02:10:00,
2013-07-25 19:16:00,57.2,54.7,30.03,SSE,148,10.0,19.0,91,0.00,,,0.00,meteohub,2013-07-26 02:16:00,
2013-07-25 19:21:00,56.8,54.3,30.03,SSE,159,9.0,19.0,91,0.00,,,0.00,meteohub,2013-07-26 02:21:00,
2013-07-25 19:26:00,56.7,54.1,30.03,SSE,156,16.0,19.0,91,0.00,,,0.00,meteohub,2013-07-26 02:26:00,
2013-07-25 19:31:00,56.5,54.1,30.03,South,182,13.0,19.0,92,0.00,,,0.00,meteohub,2013-07-26 02:31:00,
2013-07-25 19:36:00,56.3,54.0,30.03,SE,142,8.0,19.0,92,0.00,,,0.00,meteohub,2013-07-26 02:36:00,
2013-07-25 19:41:00,55.9,53.6,30.03,SSE,162,11.0,19.0,92,0.00,,,0.00,meteohub,2013-07-26 02:41:00,
2013-07-25 19:46:00,55.9,54.0,30.03,SSE,158,7.0,18.0,93,0.00,,,0.00,meteohub,2013-07-26 02:46:00,
2013-07-25 19:51:00,56.1,54.1,30.04,SSE,148,13.0,17.0,93,0.00,,,0.00,meteohub,2013-07-26 02:51:00,
2013-07-25 19:56:00,55.8,53.8,30.04,South,182,8.0,19.0,93,0.00,,,0.00,meteohub,2013-07-26 02:56:00,
2013-07-25 20:02:00,55.9,54.0,30.04,SSW,199,11.0,19.0,93,0.00,,,0.00,meteohub,2013-07-26 03:02:00,
2013-07-25 20:07:00,55.8,53.8,30.04,SSE,162,7.0,19.0,93,0.00,,,0.00,meteohub,2013-07-26 03:07:00,
2013-07-25 20:12:00,55.6,53.6,30.04,South,172,13.0,19.0,93,0.00,,,0.00,meteohub,2013-07-26 03:12:00,
2013-07-25 20:17:00,55.6,54.0,30.04,South,179,9.0,19.0,94,0.00,,,0.00,meteohub,2013-07-26 03:17:00,
2013-07-25 20:22:00,55.6,54.0,30.04,South,172,10.0,18.0,94,0.00,,,0.00,meteohub,2013-07-26 03:22:00,
2013-07-25 20:28:00,55.2,53.6,30.04,SSE,156,15.0,20.0,94,0.00,,,0.00,meteohub,2013-07-26 03:28:00,
2013-07-25 20:33:00,55.2,53.6,30.04,SSE,162,11.0,20.0,94,0.00,,,0.00,meteohub,2013-07-26 03:33:00,
2013-07-25 20:38:00,55.2,53.6,30.04,South,187,13.0,20.0,94,0.00,,,0.00,meteohub,2013-07-26 03:38:00,
2013-07-25 20:43:00,55.2,53.6,30.05,SSE,161,10.0,20.0,94,0.00,,,0.00,meteohub,2013-07-26 03:43:00,
2013-07-25 20:48:00,55.2,53.8,30.05,SSE,168,9.0,18.0,95,0.00,,,0.00,meteohub,2013-07-26 03:48:00,
2013-07-25 20:53:00,55.0,53.4,30.05,SSW,193,14.0,19.0,94,0.00,,,0.00,meteohub,2013-07-26 03:53:00,
2013-07-25 20:58:00,54.9,53.4,30.05,South,185,13.0,20.0,95,0.00,,,0.00,meteohub,2013-07-26 03:58:00,
2013-07-25 21:01:00,54.9,53.4,30.05,SE,145,17.0,21.0,95,0.00,,,0.00,meteohub,2013-07-26 04:01:00,
2013-07-25 21:02:00,54.9,53.4,30.05,SSE,152,10.0,21.0,95,0.00,,,0.00,meteohub,2013-07-26 04:02:00,
2013-07-25 21:04:00,54.9,53.4,30.05,South,187,10.0,21.0,95,0.00,,,0.00,meteohub,2013-07-26 04:04:00,
2013-07-25 21:09:00,54.9,53.4,30.06,South,170,6.0,21.0,95,0.00,,,0.00,meteohub,2013-07-26 04:09:00,
2013-07-25 21:14:00,55.0,53.6,30.06,SSE,153,4.0,21.0,95,0.00,,,0.00,meteohub,2013-07-26 04:14:00,
2013-07-25 21:19:00,54.9,53.4,30.06,South,182,4.0,21.0,95,0.00,,,0.00,meteohub,2013-07-26 04:19:00,
2013-07-25 21:25:00,54.9,53.4,30.06,South,170,11.0,18.0,95,0.00,,,0.00,meteohub,2013-07-26 04:25:00,
2013-07-25 21:30:00,54.9,53.4,30.06,South,185,7.0,18.0,95,0.00,,,0.00,meteohub,2013-07-26 04:30:00,
2013-07-25 21:35:00,54.7,53.2,30.06,South,174,13.0,20.0,95,0.00,,,0.00,meteohub,2013-07-26 04:35:00,
2013-07-25 21:40:00,54.7,53.2,30.06,South,179,13.0,20.0,95,0.00,,,0.00,meteohub,2013-07-26 04:40:00,
2013-07-25 21:45:00,54.7,53.2,30.06,SE,144,9.0,20.0,95,0.00,,,0.00,meteohub,2013-07-26 04:45:00,
2013-07-25 21:50:00,54.7,53.2,30.07,SSE,152,12.0,17.0,95,0.00,,,0.00,meteohub,2013-07-26 04:50:00,
2013-07-25 21:55:00,54.7,53.6,30.07,South,186,12.0,18.0,96,0.00,,,0.00,meteohub,2013-07-26 04:55:00,
2013-07-25 22:01:00,54.9,53.8,30.07,South,186,9.0,15.0,96,0.00,,,0.00,meteohub,2013-07-26 05:01:00,
2013-07-25 22:06:00,54.9,53.4,30.07,SSE,166,13.0,15.0,95,0.00,,,0.00,meteohub,2013-07-26 05:06:00,
2013-07-25 22:11:00,54.7,53.2,30.07,SSE,154,11.0,16.0,95,0.00,,,0.00,meteohub,2013-07-26 05:11:00,
2013-07-25 22:16:00,54.7,53.2,30.08,South,170,9.0,16.0,95,0.00,,,0.00,meteohub,2013-07-26 05:16:00,
2013-07-25 22:21:00,54.7,53.2,30.08,South,181,11.0,16.0,95,0.00,,,0.00,meteohub,2013-07-26 05:21:00,
2013-07-25 22:26:00,54.7,53.2,30.08,South,186,12.0,18.0,95,0.00,,,0.00,meteohub,2013-07-26 05:26:00,
2013-07-25 22:31:00,54.3,52.9,30.08,SE,139,7.0,18.0,95,0.00,,,0.00,meteohub,2013-07-26 05:31:00,
2013-07-25 22:36:00,54.3,52.9,30.08,South,169,8.0,18.0,95,0.00,,,0.00,meteohub,2013-07-26 05:36:00,
2013-07-25 22:41:00,54.3,52.9,30.08,South,186,6.0,16.0,95,0.00,,,0.00,meteohub,2013-07-26 05:41:00,
2013-07-25 22:47:00,54.5,53.1,30.08,South,185,8.0,16.0,95,0.00,,,0.00,meteohub,2013-07-26 05:47:00,
2013-07-25 22:52:00,54.7,53.2,30.08,South,181,14.0,16.0,95,0.00,,,0.00,meteohub,2013-07-26 05:52:00,
2013-07-25 22:57:00,54.7,53.2,30.08,South,183,10.0,18.0,95,0.00,,,0.00,meteohub,2013-07-26 05:57:00,
2013-07-25 23:02:00,54.3,52.9,30.08,SSW,200,8.0,18.0,95,0.00,,,0.00,meteohub,2013-07-26 06:02:00,
2013-07-25 23:07:00,54.5,53.1,30.08,SSW,193,7.0,18.0,95,0.00,,,0.00,meteohub,2013-07-26 06:07:00,
2013-07-25 23:12:00,54.7,53.2,30.08,South,183,9.0,15.0,95,0.00,,,0.00,meteohub,2013-07-26 06:12:00,
2013-07-25 23:17:00,54.5,53.1,30.08,South,170,10.0,15.0,95,0.00,,,0.00,meteohub,2013-07-26 06:17:00,
2013-07-25 23:22:00,54.3,52.9,30.08,SSW,197,7.0,15.0,95,0.00,,,0.00,meteohub,2013-07-26 06:22:00,
2013-07-25 23:27:00,54.3,52.9,30.08,South,181,10.0,15.0,95,0.00,,,0.00,meteohub,2013-07-26 06:27:00,
2013-07-25 23:32:00,54.3,52.9,30.08,South,170,6.0,15.0,95,0.00,,,0.00,meteohub,2013-07-26 06:32:00,
2013-07-25 23:38:00,54.3,52.9,30.08,SSE,165,9.0,15.0,95,0.00,,,0.00,meteohub,2013-07-26 06:38:00,
2013-07-25 23:43:00,54.3,52.9,30.08,South,181,4.0,15.0,95,0.00,,,0.00,meteohub,2013-07-26 06:43:00,
2013-07-25 23:48:00,54.3,52.9,30.08,South,178,10.0,15.0,95,0.00,,,0.00,meteohub,2013-07-26 06:48:00,
2013-07-25 23:53:00,54.3,52.9,30.08,SSE,158,5.0,13.0,95,0.00,,,0.00,meteohub,2013-07-26 06:53:00,
2013-07-25 23:58:00,54.1,52.7,30.08,SSW,193,11.0,16.0,95,0.00,,,0.00,meteohub,2013-07-26 06:58:00,